createdAt,value
2023-04-21T00:01:58.937Z,101165.41
2023-04-21T00:04:26.125Z,101160.91
2023-04-21T00:06:53.236Z,101165.47
2023-04-21T00:09:21.542Z,101154.09
2023-04-21T00:11:48.488Z,101141.69
2023-04-21T00:14:15.380Z,101130.00
2023-04-21T00:16:42.305Z,101137.25
2023-04-21T00:19:09.574Z,101129.28
2023-04-21T00:21:36.464Z,101125.78
2023-04-21T00:24:03.619Z,101128.47
2023-04-21T00:26:30.634Z,101116.09
2023-04-21T00:28:57.849Z,101107.97
2023-04-21T00:31:24.715Z,101106.22
2023-04-21T00:33:51.563Z,101119.63
2023-04-21T00:36:18.316Z,101117.91
2023-04-21T00:38:47.249Z,101126.09
2023-04-21T00:41:14.697Z,101118.97
2023-04-21T00:44:04.701Z,101114.50
2023-04-21T00:46:32.663Z,101110.94
2023-04-21T00:49:03.246Z,101112.75
2023-04-21T00:51:33.146Z,101117.25
2023-04-21T00:54:06.474Z,101119.94
2023-04-21T00:56:36.770Z,101106.53
2023-04-21T00:59:04.305Z,101112.03
2023-04-21T01:01:34.284Z,101110.22
2023-04-21T01:04:02.720Z,101108.41
2023-04-21T01:06:36.807Z,101103.06
2023-04-21T01:09:05.171Z,101102.03
2023-04-21T01:11:32.311Z,101100.13
2023-04-21T01:14:00.445Z,101095.66
2023-04-21T01:16:29.554Z,101094.69
2023-04-21T01:18:57.195Z,101094.63
2023-04-21T01:21:24.083Z,101100.91
2023-04-21T01:23:51.265Z,101086.78
2023-04-21T01:26:21.269Z,101089.56
2023-04-21T01:28:49.709Z,101091.34
2023-04-21T01:31:24.250Z,101090.56
2023-04-21T01:33:51.357Z,101093.25
2023-04-21T01:36:18.230Z,101096.06
2023-04-21T01:38:46.062Z,101095.00
2023-04-21T01:41:13.032Z,101089.63
2023-04-21T01:43:39.987Z,101091.44
2023-04-21T01:46:07.786Z,101083.31
2023-04-21T01:48:37.624Z,101085.06
2023-04-21T01:51:06.291Z,101079.69
2023-04-21T01:53:33.203Z,101076.03
2023-04-21T01:56:01.911Z,101073.47
2023-04-21T01:58:31.035Z,101070.69
2023-04-21T02:00:57.860Z,101052.84
2023-04-21T02:03:24.764Z,101062.63
2023-04-21T02:05:51.653Z,101059.94
2023-04-21T02:08:18.578Z,101057.13
2023-04-21T02:10:46.016Z,101043.69
2023-04-21T02:13:12.880Z,101033.81
2023-04-21T02:15:39.929Z,101035.59
2023-04-21T02:18:08.396Z,101032.03
2023-04-21T02:20:35.394Z,101029.34
2023-04-21T02:23:02.256Z,101034.53
2023-04-21T02:25:29.856Z,101023.81
2023-04-21T02:27:56.946Z,101037.16
2023-04-21T02:30:26.946Z,101030.94
2023-04-21T02:32:54.194Z,101031.84
2023-04-21T02:35:21.301Z,101027.47
2023-04-21T02:37:48.082Z,101027.47
2023-04-21T02:40:15.866Z,101031.06
2023-04-21T02:42:42.706Z,101023.97
2023-04-21T02:45:10.712Z,101018.63
2023-04-21T02:47:37.581Z,101013.16
2023-04-21T02:50:04.758Z,101007.78
2023-04-21T02:52:38.050Z,101016.66
2023-04-21T02:55:05.565Z,101009.47
2023-04-21T02:57:32.419Z,101014.03
2023-04-21T03:00:00.382Z,101001.47
2023-04-21T03:02:27.505Z,101009.59
2023-04-21T03:04:54.397Z,101005.97
2023-04-21T03:07:21.276Z,101007.72
2023-04-21T03:09:48.065Z,101008.59
2023-04-21T03:12:14.899Z,101006.78
2023-04-21T03:14:42.220Z,101013.06
2023-04-21T03:17:09.060Z,101007.72
2023-04-21T03:19:35.934Z,101011.34
2023-04-21T03:22:04.119Z,101001.56
2023-04-21T03:24:31.195Z,101001.56
2023-04-21T03:26:58.236Z,101002.50
2023-04-21T03:29:25.171Z,100991.91
2023-04-21T03:31:51.976Z,100995.53
2023-04-21T03:34:19.257Z,100992.06
2023-04-21T03:36:46.568Z,100992.25
2023-04-21T03:41:46.079Z,100995.13
2023-04-21T03:44:12.856Z,100988.06
2023-04-21T03:46:39.914Z,100985.44
2023-04-21T03:49:06.733Z,100983.69
2023-04-21T03:51:33.592Z,100971.25
2023-04-21T03:54:00.370Z,100978.31
2023-04-21T03:56:27.176Z,100981.97
2023-04-21T03:58:54.011Z,100980.22
2023-04-21T04:01:20.862Z,100975.78
2023-04-21T04:03:47.826Z,100982.13
2023-04-21T04:06:14.743Z,100984.81
2023-04-21T04:08:41.530Z,100990.22
2023-04-21T04:11:08.399Z,100986.75
2023-04-21T04:13:35.280Z,100985.91
2023-04-21T04:16:02.218Z,100978.78
2023-04-21T04:18:29.075Z,100984.16
2023-04-21T04:20:55.979Z,100978.78
2023-04-21T04:23:23.036Z,100986.03
2023-04-21T04:25:51.809Z,100987.06
2023-04-21T04:28:18.656Z,100996.06
2023-04-21T04:30:45.479Z,100995.19
2023-04-21T04:33:12.347Z,100998.81
2023-04-21T04:35:39.104Z,101001.41
2023-04-21T04:38:07.630Z,100997.88
2023-04-21T04:40:34.481Z,100995.19
2023-04-21T04:43:02.642Z,100991.56
2023-04-21T04:45:33.030Z,100987.94
2023-04-21T04:48:00.375Z,100986.03
2023-04-21T04:50:27.411Z,100994.09
2023-04-21T04:52:54.239Z,100996.63
2023-04-21T04:55:22.431Z,100992.13
2023-04-21T04:57:49.745Z,100984.00
2023-04-21T05:00:17.326Z,100993.78
2023-04-21T05:02:44.331Z,100998.22
2023-04-21T05:05:11.622Z,101001.69
2023-04-21T05:07:38.583Z,101007.06
2023-04-21T05:10:06.148Z,101002.47
2023-04-21T05:12:32.968Z,101011.31
2023-04-21T05:14:59.761Z,101004.16
2023-04-21T05:17:27.306Z,101001.38
2023-04-21T05:19:54.276Z,101016.53
2023-04-21T05:22:22.269Z,101014.63
2023-04-21T05:24:49.099Z,101013.72
2023-04-21T05:27:15.994Z,101022.56
2023-04-21T05:29:43.040Z,101026.03
2023-04-21T05:32:12.563Z,101027.75
2023-04-21T05:34:39.531Z,101023.19
2023-04-21T05:37:06.413Z,101028.38
2023-04-21T05:39:33.216Z,101022.94
2023-04-21T05:41:59.976Z,101020.19
2023-04-21T05:44:26.887Z,101029.97
2023-04-21T05:46:53.725Z,101031.66
2023-04-21T05:49:20.696Z,101037.72
2023-04-21T05:51:47.535Z,101044.22
2023-04-21T05:54:14.646Z,101049.97
2023-04-21T05:56:41.509Z,101054.19
2023-04-21T05:59:08.404Z,101043.44
2023-04-21T06:01:35.926Z,101049.59
2023-04-21T06:04:03.124Z,101037.75
2023-04-21T06:06:30.590Z,101039.31
2023-04-21T06:08:57.464Z,101032.03
2023-04-21T06:11:24.344Z,101028.34
2023-04-21T06:13:53.781Z,101024.63
2023-04-21T06:16:20.955Z,101024.41
2023-04-21T06:18:47.814Z,101020.09
2023-04-21T06:21:14.618Z,101025.44
2023-04-21T06:23:42.309Z,101031.34
2023-04-21T06:26:09.515Z,101033.97
2023-04-21T06:28:37.440Z,101038.28
2023-04-21T06:31:06.973Z,101035.19
2023-04-21T06:33:36.318Z,101030.38
2023-04-21T06:36:03.423Z,101039.59
2023-04-21T06:38:30.373Z,101029.63
2023-04-21T06:40:57.324Z,101035.28
2023-04-21T06:43:24.107Z,101041.31
2023-04-21T06:45:50.977Z,101038.22
2023-04-21T06:48:17.841Z,101036.91
2023-04-21T06:50:58.742Z,101036.91
2023-04-21T06:53:25.686Z,101028.59
2023-04-21T06:55:53.430Z,101037.94
2023-04-21T06:58:21.478Z,101039.03
2023-04-21T07:00:48.471Z,101038.63
2023-04-21T07:03:15.799Z,101044.00
2023-04-21T07:05:42.827Z,101035.00
2023-04-21T07:08:09.602Z,101030.34
2023-04-21T07:10:36.419Z,101029.09
2023-04-21T07:13:03.345Z,101034.59
2023-04-21T07:15:30.660Z,101031.81
2023-04-21T07:17:58.944Z,101035.53
2023-04-21T07:20:26.178Z,101032.03
2023-04-21T07:22:53.037Z,101039.50
2023-04-21T07:25:19.914Z,101037.81
2023-04-21T07:27:46.805Z,101042.06
2023-04-21T07:30:13.933Z,101036.06
2023-04-21T07:32:40.788Z,101030.06
2023-04-21T07:35:08.108Z,101027.69
2023-04-21T07:37:34.992Z,101029.19
2023-04-21T07:40:01.934Z,101015.78
2023-04-21T07:42:29.025Z,101009.53
2023-04-21T07:44:57.453Z,101015.38
2023-04-21T07:47:24.455Z,101021.81
2023-04-21T07:49:54.591Z,101027.94
2023-04-21T07:52:21.638Z,101029.78
2023-04-21T07:54:48.498Z,101020.00
2023-04-21T07:57:15.772Z,101026.41
2023-04-21T07:59:42.643Z,101029.69
2023-04-21T08:02:10.080Z,101015.44
2023-04-21T08:04:37.114Z,101013.84
2023-04-21T08:07:04.126Z,101025.03
2023-04-21T08:09:31.087Z,101019.34
2023-04-21T08:11:58.062Z,101028.75
2023-04-21T08:14:26.878Z,101025.81
2023-04-21T08:16:56.749Z,101027.41
2023-04-21T08:19:24.291Z,101023.16
2023-04-21T08:21:51.284Z,101025.03
2023-04-21T08:24:18.422Z,101023.50
2023-04-21T08:26:45.800Z,101017.25
2023-04-21T08:29:14.135Z,101028.72
2023-04-21T08:31:41.342Z,101022.56
2023-04-21T08:34:08.310Z,101014.66
2023-04-21T08:36:35.376Z,101014.56
2023-04-21T08:39:02.585Z,101016.06
2023-04-21T08:41:30.008Z,101014.00
2023-04-21T08:43:56.837Z,101008.72
2023-04-21T08:46:24.564Z,101011.69
2023-04-21T08:48:52.966Z,101008.69
2023-04-21T08:51:24.050Z,101007.75
2023-04-21T08:53:51.914Z,101012.69
2023-04-21T08:56:18.921Z,101006.03
2023-04-21T08:58:45.872Z,101006.00
2023-04-21T09:01:12.789Z,101000.84
2023-04-21T09:03:39.991Z,101002.06
2023-04-21T09:06:10.594Z,101003.94
2023-04-21T09:08:42.986Z,101009.22
2023-04-21T09:11:14.667Z,101003.22
2023-04-21T09:13:44.047Z,101003.63
2023-04-21T09:16:22.566Z,101002.44
2023-04-21T09:18:51.475Z,101002.72
2023-04-21T09:21:20.455Z,101004.75
2023-04-21T09:23:53.189Z,100998.63
2023-04-21T09:26:25.212Z,100991.47
2023-04-21T09:28:54.135Z,100993.44
2023-04-21T09:31:29.340Z,100995.16
2023-04-21T09:34:01.094Z,100994.19
2023-04-21T09:36:31.215Z,100998.38
2023-04-21T09:41:32.967Z,100997.88
2023-04-21T09:44:04.834Z,101001.34
2023-04-21T09:46:36.707Z,100990.97
2023-04-21T09:49:06.574Z,101000.59
2023-04-21T09:56:53.104Z,100985.56
2023-04-21T09:59:29.294Z,100989.63
2023-04-21T10:02:00.316Z,100986.97
2023-04-21T10:04:31.663Z,100983.75
2023-04-21T10:07:00.960Z,100979.66
2023-04-21T10:09:36.898Z,100985.09
2023-04-21T10:12:06.920Z,100987.22
2023-04-21T10:14:35.460Z,100990.00
2023-04-21T10:17:08.491Z,100973.78
2023-04-21T10:19:40.939Z,100978.22
2023-04-21T10:22:12.634Z,100971.78
2023-04-21T10:24:41.285Z,100975.81
2023-04-21T10:27:30.568Z,100970.59
2023-04-21T10:29:59.221Z,100978.81
2023-04-21T10:32:46.444Z,100967.16
2023-04-21T10:35:17.340Z,100967.44
2023-04-21T10:37:48.600Z,100960.94
2023-04-21T10:40:43.014Z,100960.47
2023-04-21T10:43:46.494Z,100944.75
2023-04-21T10:46:39.616Z,100951.09
2023-04-21T10:49:28.501Z,100933.28
2023-04-21T10:51:58.616Z,100941.63
2023-04-21T10:54:27.411Z,100932.56
2023-04-21T10:56:56.543Z,100933.25
2023-04-21T10:59:26.251Z,100924.69
2023-04-21T11:01:53.218Z,100932.88
2023-04-21T11:04:23.078Z,100922.81
2023-04-21T11:07:12.487Z,100926.13
2023-04-21T11:09:42.499Z,100917.28
2023-04-21T11:12:12.684Z,100905.22
2023-04-21T11:14:43.791Z,100903.53
2023-04-21T11:17:24.356Z,100903.25
2023-04-21T11:19:57.719Z,100903.78
2023-04-21T11:22:27.088Z,100886.22
2023-04-21T11:24:59.041Z,100891.56
2023-04-21T11:27:30.824Z,100879.25
2023-04-21T11:29:58.369Z,100882.56
2023-04-21T11:32:25.492Z,100882.28
2023-04-21T11:34:55.492Z,100863.88
2023-04-21T11:37:27.027Z,100874.25
2023-04-21T11:40:01.608Z,100876.38
2023-04-21T11:42:29.266Z,100869.84
2023-04-21T11:44:57.400Z,100866.03
2023-04-21T11:47:28.907Z,100857.16
2023-04-21T11:50:01.075Z,100857.47
2023-04-21T11:52:34.487Z,100852.44
2023-04-21T11:55:16.151Z,100845.16
2023-04-21T11:57:42.979Z,100844.09
2023-04-21T12:00:13.359Z,100845.22
2023-04-21T12:02:40.671Z,100849.38
2023-04-21T12:05:13.755Z,100843.72
2023-04-21T12:07:46.516Z,100839.66
2023-04-21T12:10:22.520Z,100837.22
2023-04-21T12:12:49.363Z,100832.91
2023-04-21T12:15:22.878Z,100841.38
2023-04-21T12:17:54.404Z,100834.09
2023-04-21T12:20:28.398Z,100829.81
2023-04-21T12:22:56.501Z,100828.09
2023-04-21T12:25:24.626Z,100822.69
2023-04-21T12:27:54.424Z,100820.44
2023-04-21T12:30:21.961Z,100820.44
2023-04-21T12:32:49.487Z,100811.25
2023-04-21T12:35:16.438Z,100813.31
2023-04-21T12:37:44.401Z,100808.69
2023-04-21T12:40:11.651Z,100818.53
2023-04-21T12:42:38.617Z,100815.88
2023-04-21T12:45:06.821Z,100811.50
2023-04-21T12:47:37.573Z,100809.91
2023-04-21T12:50:05.369Z,100804.94
2023-04-21T12:52:32.217Z,100792.19
2023-04-21T12:54:59.150Z,100791.34
2023-04-21T12:57:26.218Z,100776.97
2023-04-21T12:59:53.219Z,100790.34
2023-04-21T13:02:20.241Z,100775.66
2023-04-21T13:04:47.220Z,100789.53
2023-04-21T13:07:16.140Z,100786.31
2023-04-21T13:09:43.073Z,100781.09
2023-04-21T13:12:09.835Z,100786.81
2023-04-21T13:14:36.756Z,100772.53
2023-04-21T13:17:03.847Z,100771.38
2023-04-21T13:19:31.133Z,100772.13
2023-04-21T13:21:58.156Z,100772.75
2023-04-21T13:24:26.804Z,100763.22
2023-04-21T13:26:53.642Z,100754.91
2023-04-21T13:29:20.483Z,100755.19
2023-04-21T13:31:47.332Z,100745.06
2023-04-21T13:34:14.157Z,100752.09
2023-04-21T13:36:41.329Z,100745.09
2023-04-21T13:39:11.768Z,100741.81
2023-04-21T13:41:38.987Z,100737.34
2023-04-21T13:44:06.248Z,100735.31
2023-04-21T13:46:33.291Z,100745.25
2023-04-21T13:49:00.300Z,100741.84
2023-04-21T13:51:27.226Z,100740.78
2023-04-21T13:53:54.392Z,100743.28
2023-04-21T13:56:21.669Z,100738.31
2023-04-21T13:58:48.910Z,100738.91
2023-04-21T14:01:17.165Z,100735.00
2023-04-21T14:03:44.931Z,100731.47
2023-04-21T14:06:12.043Z,100729.38
2023-04-21T14:08:38.824Z,100719.16
2023-04-21T14:11:06.550Z,100717.00
2023-04-21T14:13:44.690Z,100713.78
2023-04-21T14:16:14.976Z,100709.63
2023-04-21T14:18:45.141Z,100705.97
2023-04-21T14:21:12.042Z,100693.03
2023-04-21T14:23:39.207Z,100692.78
2023-04-21T14:26:06.202Z,100688.19
2023-04-21T14:28:33.031Z,100689.38
2023-04-21T14:30:59.877Z,100680.66
2023-04-21T14:33:26.867Z,100675.34
2023-04-21T14:35:53.736Z,100669.84
2023-04-21T14:38:20.756Z,100661.97
2023-04-21T14:40:49.714Z,100661.31
2023-04-21T14:43:16.501Z,100660.94
2023-04-21T14:45:43.726Z,100656.97
2023-04-21T14:48:11.881Z,100657.53
2023-04-21T14:50:38.763Z,100646.03
2023-04-21T14:53:05.845Z,100632.50
2023-04-21T14:55:33.915Z,100636.09
2023-04-21T14:58:00.738Z,100632.34
2023-04-21T15:00:29.483Z,100618.13
2023-04-21T15:02:56.680Z,100619.72
2023-04-21T15:05:23.710Z,100605.59
2023-04-21T15:07:50.631Z,100612.88
2023-04-21T15:10:17.862Z,100616.78
2023-04-21T15:12:45.027Z,100616.56
2023-04-21T15:15:12.121Z,100606.66
2023-04-21T15:17:39.042Z,100607.63
2023-04-21T15:20:06.823Z,100607.34
2023-04-21T15:22:33.702Z,100604.78
2023-04-21T15:25:00.662Z,100596.88
2023-04-21T15:27:27.453Z,100593.75
2023-04-21T15:29:54.481Z,100587.25
2023-04-21T15:32:21.452Z,100593.41
2023-04-21T15:34:49.108Z,100586.06
2023-04-21T15:37:17.512Z,100586.25
2023-04-21T15:39:44.296Z,100587.28
2023-04-21T15:42:11.154Z,100577.38
2023-04-21T15:44:39.175Z,100564.00
2023-04-21T15:47:06.422Z,100546.91
2023-04-21T15:49:33.741Z,100544.84
2023-04-21T15:52:02.893Z,100547.44
2023-04-21T15:54:29.857Z,100546.22
2023-04-21T15:56:57.697Z,100555.47
2023-04-21T15:59:26.044Z,100543.47
2023-04-21T16:01:53.454Z,100541.75
2023-04-21T16:04:20.573Z,100529.63
2023-04-21T16:06:47.502Z,100521.19
2023-04-21T16:09:14.423Z,100521.22
2023-04-21T16:11:41.401Z,100513.72
2023-04-21T16:14:09.449Z,100515.31
2023-04-21T16:16:37.215Z,100522.00
2023-04-21T16:19:04.288Z,100517.00
2023-04-21T16:21:31.698Z,100512.56
2023-04-21T16:23:58.650Z,100508.19
2023-04-21T16:26:25.595Z,100500.56
2023-04-21T16:28:56.561Z,100498.81
2023-04-21T16:31:23.431Z,100501.66
2023-04-21T16:33:52.510Z,100507.34
2023-04-21T16:36:20.233Z,100510.31
2023-04-21T16:38:47.087Z,100505.72
2023-04-21T16:41:14.018Z,100499.00
2023-04-21T16:43:42.908Z,100496.47
2023-04-21T16:46:09.877Z,100504.41
2023-04-21T16:48:36.692Z,100504.56
2023-04-21T16:51:03.802Z,100507.13
2023-04-21T16:53:30.650Z,100503.56
2023-04-21T16:55:57.631Z,100502.56
2023-04-21T16:58:26.231Z,100504.81
2023-04-21T17:00:53.516Z,100505.22
2023-04-21T17:03:20.659Z,100511.03
2023-04-21T17:05:47.609Z,100506.06
2023-04-21T17:08:14.472Z,100509.66
2023-04-21T17:10:41.272Z,100502.69
2023-04-21T17:13:08.123Z,100513.31
2023-04-21T17:15:35.239Z,100508.16
2023-04-21T17:18:02.250Z,100529.94
2023-04-21T17:20:29.657Z,100528.50
2023-04-21T17:22:56.471Z,100571.97
2023-04-21T17:25:23.268Z,100534.34
2023-04-21T17:27:50.053Z,100495.56
2023-04-21T17:30:18.794Z,100480.59
2023-04-21T17:32:45.662Z,100472.72
2023-04-21T17:35:12.516Z,100475.50
2023-04-21T17:37:39.424Z,100470.28
2023-04-21T17:40:09.487Z,100472.25
2023-04-21T17:42:36.448Z,100479.84
2023-04-21T17:45:05.484Z,100489.41
2023-04-21T17:47:32.525Z,100483.06
2023-04-21T17:49:59.774Z,100500.84
2023-04-21T17:52:26.982Z,100521.03
2023-04-21T17:54:53.927Z,100509.00
2023-04-21T17:57:20.865Z,100504.81
2023-04-21T17:59:47.780Z,100484.44
2023-04-21T18:02:14.776Z,100462.91
2023-04-21T18:04:41.977Z,100455.88
2023-04-21T18:07:09.427Z,100450.69
2023-04-21T18:09:36.637Z,100447.25
2023-04-21T18:12:03.985Z,100451.09
2023-04-21T18:14:31.192Z,100442.34
2023-04-21T18:16:58.085Z,100442.81
2023-04-21T18:19:24.951Z,100440.38
2023-04-21T18:21:51.862Z,100452.19
2023-04-21T18:24:18.730Z,100454.16
2023-04-21T18:26:46.295Z,100458.81
2023-04-21T18:29:14.173Z,100464.34
2023-04-21T18:31:42.050Z,100456.34
2023-04-21T18:34:09.075Z,100468.28
2023-04-21T18:36:37.781Z,100472.09
2023-04-21T18:39:05.406Z,100471.34
2023-04-21T18:41:32.350Z,100477.03
2023-04-21T18:43:59.179Z,100483.53
2023-04-21T18:46:25.989Z,100473.81
2023-04-21T18:48:53.405Z,100485.72
2023-04-21T18:51:20.249Z,100480.31
2023-04-21T18:53:47.074Z,100470.38
2023-04-21T18:56:13.830Z,100475.78
2023-04-21T18:58:40.668Z,100465.19
2023-04-21T19:01:08.015Z,100463.47
2023-04-21T19:03:35.292Z,100463.72
2023-04-21T19:06:02.291Z,100466.66
2023-04-21T19:08:41.201Z,100466.78
2023-04-21T19:11:15.793Z,100465.94
2023-04-21T19:13:43.096Z,100458.16
2023-04-21T19:16:13.786Z,100456.47
2023-04-21T19:18:41.590Z,100462.09
2023-04-21T19:21:12.818Z,100457.91
2023-04-21T19:23:41.695Z,100474.25
2023-04-21T19:26:09.713Z,100465.41
2023-04-21T19:28:36.585Z,100464.78
2023-04-21T19:31:04.285Z,100464.91
2023-04-21T19:33:31.229Z,100453.34
2023-04-21T19:35:59.055Z,100458.88
2023-04-21T19:38:29.423Z,100459.25
2023-04-21T19:40:57.473Z,100462.91
2023-04-21T19:43:24.242Z,100459.47
2023-04-21T19:45:51.920Z,100453.44
2023-04-21T19:48:18.904Z,100454.56
2023-04-21T19:50:46.442Z,100457.25
2023-04-21T19:53:14.852Z,100458.97
2023-04-21T19:55:43.038Z,100482.31
2023-04-21T19:58:10.435Z,100504.88
2023-04-21T20:00:37.420Z,100524.81
2023-04-21T20:03:06.598Z,100536.63
2023-04-21T20:05:33.930Z,100546.47
2023-04-21T20:08:01.001Z,100529.25
2023-04-21T20:10:27.762Z,100510.47
2023-04-21T20:12:54.616Z,100525.53
2023-04-21T20:15:21.730Z,100521.81
2023-04-21T20:17:49.179Z,100528.53
2023-04-21T20:20:16.465Z,100517.31
2023-04-21T20:22:43.512Z,100516.34
2023-04-21T20:25:10.763Z,100514.63
2023-04-21T20:27:37.700Z,100539.56
2023-04-21T20:30:05.477Z,100530.28
2023-04-21T20:32:32.643Z,100532.81
2023-04-21T20:34:59.757Z,100562.09
2023-04-21T20:37:26.602Z,100579.22
2023-04-21T20:39:53.363Z,100583.72
2023-04-21T20:42:21.787Z,100581.91
2023-04-21T20:44:48.728Z,100584.16
2023-04-21T20:47:15.795Z,100583.16
2023-04-21T20:49:43.581Z,100565.66
2023-04-21T20:52:10.746Z,100558.75
2023-04-21T20:54:38.290Z,100553.53
2023-04-21T20:57:07.349Z,100552.25
2023-04-21T20:59:34.570Z,100543.63
2023-04-21T21:02:01.704Z,100540.66
2023-04-21T21:04:28.667Z,100547.72
2023-04-21T21:06:56.157Z,100536.84
2023-04-21T21:09:23.148Z,100535.84
2023-04-21T21:11:49.920Z,100543.63
2023-04-21T21:14:16.732Z,100540.34
2023-04-21T21:16:43.934Z,100540.81
2023-04-21T21:19:12.597Z,100530.22
2023-04-21T21:21:39.460Z,100525.81
2023-04-21T21:24:06.668Z,100528.53
2023-04-21T21:26:34.054Z,100521.38
2023-04-21T21:29:01.321Z,100500.00
2023-04-21T21:31:28.195Z,100500.25
2023-04-21T21:33:55.165Z,100494.84
2023-04-21T21:36:22.156Z,100495.94
2023-04-21T21:38:49.564Z,100498.97
2023-04-21T21:41:18.856Z,100502.63
2023-04-21T21:43:46.207Z,100495.44
2023-04-21T21:46:13.714Z,100500.94
2023-04-21T21:48:42.570Z,100500.50
2023-04-21T21:51:09.387Z,100494.81
2023-04-21T21:53:36.214Z,100488.22
2023-04-21T21:56:02.964Z,100480.91
2023-04-21T21:58:29.869Z,100480.72
2023-04-21T22:00:56.671Z,100475.97
2023-04-21T22:03:23.619Z,100471.22
2023-04-21T22:05:50.489Z,100487.81
2023-04-21T22:08:17.286Z,100493.63
2023-04-21T22:10:44.746Z,100499.34
2023-04-21T22:13:12.157Z,100494.38
2023-04-21T22:15:39.276Z,100494.47
2023-04-21T22:18:07.884Z,100491.88
2023-04-21T22:20:35.289Z,100488.03
2023-04-21T22:23:04.391Z,100484.16
2023-04-21T22:25:31.770Z,100486.84
2023-04-21T22:27:59.005Z,100489.31
2023-04-21T22:30:26.054Z,100490.94
2023-04-21T22:32:53.191Z,100488.25
2023-04-21T22:35:20.390Z,100495.47
2023-04-21T22:37:47.306Z,100495.78
2023-04-21T22:40:14.288Z,100486.72
2023-04-21T22:42:41.178Z,100482.84
2023-04-21T22:45:08.870Z,100485.19
2023-04-21T22:47:35.941Z,100486.47
2023-04-21T22:50:04.382Z,100496.56
2023-04-21T22:52:31.311Z,100487.94
2023-04-21T22:54:58.150Z,100488.38
2023-04-21T22:57:25.627Z,100487.03
2023-04-21T22:59:52.985Z,100491.13
2023-04-21T23:02:19.967Z,100483.56
2023-04-21T23:04:46.866Z,100481.19
2023-04-21T23:07:13.805Z,100476.06
2023-04-21T23:09:40.718Z,100487.16
2023-04-21T23:12:08.243Z,100485.59
2023-04-21T23:14:35.105Z,100480.53
2023-04-21T23:17:01.985Z,100476.28
2023-04-21T23:19:30.391Z,100470.06
2023-04-21T23:21:57.331Z,100474.88
2023-04-21T23:24:24.168Z,100477.78
2023-04-21T23:26:51.028Z,100471.66
2023-04-21T23:29:18.490Z,100475.47
2023-04-21T23:31:45.425Z,100475.78
2023-04-21T23:34:12.288Z,100473.38
2023-04-21T23:36:39.103Z,100471.75
2023-04-21T23:39:06.261Z,100466.66
2023-04-21T23:41:33.278Z,100466.88
2023-04-21T23:44:00.346Z,100477.81
2023-04-21T23:46:27.199Z,100485.31
2023-04-21T23:48:54.133Z,100473.97
2023-04-21T23:51:22.116Z,100471.50
2023-04-21T23:53:49.010Z,100472.56
2023-04-21T23:56:15.824Z,100472.78
2023-04-21T23:58:42.624Z,100472.09
